Flight Track Log - Related Links

Times and Time Zones

All times are in EDT time to prevent confusion due to time zone crossing. See the UPS1308 flight status page for this flight to view local times or setup timezone preferences in your user account.

Time Position Orientation Groundspeed Altitude Reporting Facility
EDT Latitude Longitude Course Direction KTS MPH feet Rate Location/Type
Wed 03:03:14 AM 39.8610 -75.2714 17° North 145 167 1,300  Level FlightAware ADS-B
Wed 03:03:22 AM 39.8587 -75.2781 246° West 150 173 1,700 2,211 Climbing FlightAware ADS-B
Wed 03:03:33 AM 39.8552 -75.2876 244° Southwest 165 190 2,000 1,714 Climbing FlightAware ADS-B
Wed 03:03:43 AM 39.8514 -75.2974 243° Southwest 179 206 2,300 2,100 Climbing FlightAware ADS-B
Wed 03:03:53 AM 39.8476 -75.3068 242° Southwest 185 213 2,700 2,667 Climbing FlightAware ADS-B
Wed 03:04:01 AM 39.8444 -75.3146 242° Southwest 189 217 3,100 3,273 Climbing FlightAware ADS-B
Wed 03:04:04 AM 39.8429 -75.3184 243° Southwest 188 216 3,300 2,571 Climbing FlightAware ADS-B
Wed 03:04:08 AM 39.8419 -75.3218 249° West 190 219 3,400 2,571 Climbing FlightAware ADS-B
Wed 03:04:11 AM 39.8409 -75.3261 253° West 192 221 3,600 2,250 Climbing FlightAware ADS-B
Wed 03:04:16 AM 39.8401 -75.3314 259° West 196 226 3,700 1,846 Climbing FlightAware ADS-B
Wed 03:04:24 AM 39.8391 -75.3408 262° West 205 236 4,000 1,875 Climbing FlightAware ADS-B
Wed 03:04:32 AM 39.8385 -75.3513 266° West 217 250 4,200 1,565 Climbing FlightAware ADS-B
Wed 03:04:47 AM 39.8381 -75.3721 269° West 239 275 4,600 1,680 Climbing FlightAware ADS-B
Wed 03:04:57 AM 39.8380 -75.3873 270° West 250 288 4,900 2,455 Climbing FlightAware ADS-B
Wed 03:05:09 AM 39.8379 -75.4057 270° West 255 293 5,500 3,214 Climbing FlightAware ADS-B
Wed 03:05:25 AM 39.8376 -75.4305 269° West 257 296 6,400 3,231 Climbing FlightAware ADS-B
Wed 03:05:35 AM 39.8375 -75.4465 270° West 261 300 6,900 3,000 Climbing FlightAware ADS-B
Wed 03:05:45 AM 39.8377 -75.4622 271° West 265 305 7,400 3,000 Climbing FlightAware ADS-B
Wed 03:05:57 AM 39.8381 -75.4814 272° West 266 306 8,000 3,000 Climbing FlightAware ADS-B
Wed 03:06:07 AM 39.8381 -75.4977 270° West 267 307 8,500 2,700 Climbing FlightAware ADS-B
Wed 03:06:17 AM 39.8381 -75.5133 270° West 270 311 8,900 2,640 Climbing FlightAware ADS-B
Wed 03:06:32 AM 39.8377 -75.5388 269° West 276 318 9,600 2,222 Climbing FlightAware ADS-B
Wed 03:06:44 AM 39.8373 -75.5591 269° West 281 323 9,900 1,091 Climbing FlightAware ADS-B
Wed 03:07:05 AM 39.8370 -75.5958 269° West 292 336 10,200 800 Climbing FlightAware ADS-B
Wed 03:07:29 AM 39.8370 -75.6410 270° West 328 377 10,500 873 Climbing FlightAware ADS-B
Wed 03:08:00 AM 39.8374 -75.7052 270° West 364 419 11,000 1,600 Climbing FlightAware ADS-B
Wed 03:08:29 AM 39.8377 -75.7717 270° West 376 433 12,100 2,333 Climbing FlightAware ADS-B
Wed 03:08:36 AM 39.8369 -75.7872 266° West 377 434 12,400 2,769 Climbing FlightAware ADS-B
Wed 03:08:42 AM 39.8353 -75.7997 261° West 379 436 12,700 2,182 Climbing FlightAware ADS-B
Wed 03:08:47 AM 39.8328 -75.8116 255° West 380 437 12,800 1,800 Climbing FlightAware ADS-B
Wed 03:08:52 AM 39.8295 -75.8228 249° West 383 441 13,000 1,600 Climbing FlightAware ADS-B
Wed 03:09:02 AM 39.8212 -75.8424 241° Southwest 390 449 13,200 1,818 Climbing FlightAware ADS-B
Wed 03:09:25 AM 39.7969 -75.8876 235° Southwest 398 458 14,000 2,151 Climbing FlightAware ADS-B
Wed 03:09:55 AM 39.7658 -75.9470 236° Southwest 404 465 15,100 2,200 Climbing FlightAware ADS-B
Wed 03:10:25 AM 39.7336 -76.0080 236° Southwest 409 471 16,200 2,164 Climbing FlightAware ADS-B
Wed 03:10:56 AM 39.6993 -76.0693 234° Southwest 415 478 17,300 1,869 Climbing FlightAware ADS-B
Wed 03:11:26 AM 39.6652 -76.1306 234° Southwest 425 489 18,100 1,600 Climbing FlightAware ADS-B
Wed 03:11:56 AM 39.6295 -76.1938 234° Southwest 433 498 18,900 1,574 Climbing FlightAware ADS-B
Wed 03:12:27 AM 39.5928 -76.2584 234° Southwest 438 504 19,700 1,672 Climbing FlightAware ADS-B
Wed 03:12:57 AM 39.5563 -76.3226 234° Southwest 442 509 20,600 1,700 Climbing FlightAware ADS-B
Wed 03:13:27 AM 39.5189 -76.3862 233° Southwest 447 514 21,400 1,500 Climbing FlightAware ADS-B
Wed 03:13:57 AM 39.4790 -76.4491 231° Southwest 452 520 22,100 1,300 Climbing FlightAware ADS-B
Wed 03:14:27 AM 39.4387 -76.5128 231° Southwest 458 527 22,700 1,300 Climbing FlightAware ADS-B
Wed 03:14:57 AM 39.3987 -76.5764 231° Southwest 462 532 23,400 1,082 Climbing FlightAware ADS-B
Wed 03:15:28 AM 39.3574 -76.6422 231° Southwest 470 541 23,800 787 Climbing FlightAware ADS-B
Wed 03:15:58 AM 39.3156 -76.7088 231° Southwest 480 552 24,200 1,000 Climbing FlightAware ADS-B
Wed 03:16:28 AM 39.2728 -76.7766 231° Southwest 487 560 24,800 1,300 Climbing FlightAware ADS-B
Wed 03:16:58 AM 39.2294 -76.8450 231° Southwest 492 566 25,500 1,300 Climbing FlightAware ADS-B
Wed 03:17:28 AM 39.1861 -76.9133 231° Southwest 494 568 26,100 1,200 Climbing FlightAware ADS-B
Wed 03:17:58 AM 39.1421 -76.9824 231° Southwest 498 573 26,700 1,082 Climbing FlightAware ADS-B
Wed 03:18:29 AM 39.0976 -77.0516 230° Southwest 500 575 27,200 1,082 Climbing FlightAware ADS-B
Wed 03:18:59 AM 39.0532 -77.1204 230° Southwest 500 575 27,800 1,300 Climbing FlightAware ADS-B
Wed 03:19:29 AM 39.0077 -77.1908 230° Southwest 499 574 28,500 1,279 Climbing FlightAware ADS-B
Wed 03:20:00 AM 38.9622 -77.2611 230° Southwest 500 575 29,100 1,180 Climbing FlightAware ADS-B
Wed 03:20:30 AM 38.9176 -77.3301 230° Southwest 499 574 29,700 1,180 Climbing FlightAware ADS-B
Wed 03:21:01 AM 38.8726 -77.3998 230° Southwest 498 573 30,300 1,258 Climbing FlightAware ADS-B
Wed 03:21:32 AM 38.8277 -77.4694 230° Southwest 497 572 31,000 1,377 Climbing FlightAware ADS-B
Wed 03:22:02 AM 38.7838 -77.5375 230° Southwest 496 571 31,700 1,300 Climbing FlightAware ADS-B
Wed 03:22:32 AM 38.7396 -77.6058 230° Southwest 495 570 32,300 1,161 Climbing FlightAware ADS-B
Wed 03:23:04 AM 38.6930 -77.6782 231° Southwest 495 570 32,900 1,258 Climbing FlightAware ADS-B
Wed 03:23:34 AM 38.6488 -77.7463 230° Southwest 493 567 33,600 1,475 Climbing FlightAware ADS-B
Wed 03:24:05 AM 38.6039 -77.8156 230° Southwest 487 560 34,400 1,215 Climbing FlightAware ADS-B
Wed 03:24:53 AM 38.5680 -77.8710 230° Southwest 483 556 35,200 1,227 Climbing FlightAware ADS-B
Wed 03:25:33 AM 38.5120 -77.9570 230° Southwest 479 551 36,200 1,935 Climbing FlightAware ADS-B
Wed 03:25:55 AM 38.4474 -78.0548 230° Southwest 473 544 37,200 1,385 Climbing FlightAware ADS-B
Wed 03:26:51 AM 38.3685 -78.1738 230° Southwest 474 545 38,000 539 Climbing FlightAware ADS-B
Wed 03:27:24 AM 38.3206 -78.2458 230° Southwest 476 548 38,000  Level FlightAware ADS-B
Wed 03:27:55 AM 38.2770 -78.3113 230° Southwest 477 549 38,000  Level FlightAware ADS-B
Wed 03:29:08 AM 38.2130 -78.4080 230° Southwest 479 551 38,000  Level FlightAware ADS-B
Wed 03:29:10 AM 38.1688 -78.4729 229° Southwest 480 552 38,000  Level FlightAware ADS-B
Wed 03:29:42 AM 38.1230 -78.5411 230° Southwest 479 551 38,000  Level FlightAware ADS-B
Wed 03:30:13 AM 38.0778 -78.6083 229° Southwest 479 551 38,000  Level FlightAware ADS-B
Wed 03:31:08 AM 38.0390 -78.6660 230° Southwest 478 550 38,000  Level FlightAware ADS-B
Wed 03:31:46 AM 37.9445 -78.8059 229° Southwest 477 549 38,000  Level FlightAware ADS-B
Wed 03:32:28 AM 37.8910 -78.8840 229° Southwest 475 547 38,000  Level FlightAware ADS-B
Wed 03:33:18 AM 37.8150 -78.9980 230° Southwest 475 547 38,000  Level FlightAware ADS-B
Wed 03:33:58 AM 37.7570 -79.0830 229° Southwest 475 547 38,000  Level FlightAware ADS-B
Wed 03:34:43 AM 37.6930 -79.1750 229° Southwest 474 545 38,000  Level FlightAware ADS-B
Wed 03:35:23 AM 37.6350 -79.2590 229° Southwest 474 545 38,000  Level FlightAware ADS-B
Wed 03:36:08 AM 37.5710 -79.3530 229° Southwest 474 545 38,000  Level FlightAware ADS-B
Wed 03:36:48 AM 37.5140 -79.4350 229° Southwest 474 545 38,000  Level FlightAware ADS-B
Wed 03:37:23 AM 37.4610 -79.5110 229° Southwest 475 547 38,000  Level FlightAware ADS-B
Wed 03:38:13 AM 37.3910 -79.6130 229° Southwest 475 547 38,000  Level FlightAware ADS-B
Wed 03:38:48 AM 37.3420 -79.6830 229° Southwest 476 548 38,000  Level FlightAware ADS-B
Wed 03:39:38 AM 37.2650 -79.7880 227° Southwest 477 549 38,000  Level FlightAware ADS-B
Wed 03:40:18 AM 37.2060 -79.8700 228° Southwest 477 549 38,000  Level FlightAware ADS-B
Wed 03:40:53 AM 37.1580 -79.9370 228° Southwest 479 551 38,000  Level FlightAware ADS-B
Wed 03:41:38 AM 37.0960 -80.0190 227° Southwest 479 551 38,000  Level FlightAware ADS-B
Wed 03:42:18 AM 37.0450 -80.0890 228° Southwest 479 551 38,000  Level FlightAware ADS-B
Wed 03:42:58 AM 36.9940 -80.1580 227° Southwest 479 551 38,000  Level FlightAware ADS-B
Wed 03:43:48 AM 36.9290 -80.2440 227° Southwest 479 551 38,000  Level FlightAware ADS-B
Wed 03:44:28 AM 36.8780 -80.3130 227° Southwest 479 551 38,000  Level FlightAware ADS-B
Wed 03:45:08 AM 36.8270 -80.3810 227° Southwest 479 551 38,000  Level FlightAware ADS-B
Wed 03:45:48 AM 36.7750 -80.4500 227° Southwest 479 551 38,000  Level FlightAware ADS-B
Wed 03:46:38 AM 36.7110 -80.5360 227° Southwest 479 551 38,000  Level FlightAware ADS-B
Wed 03:47:18 AM 36.6600 -80.6050 227° Southwest 479 551 38,000  Level FlightAware ADS-B
Wed 03:47:58 AM 36.6080 -80.6740 227° Southwest 479 551 38,000  Level FlightAware ADS-B
Wed 03:48:38 AM 36.5570 -80.7420 227° Southwest 479 551 38,000  Level FlightAware ADS-B
Wed 03:49:18 AM 36.5050 -80.8110 227° Southwest 479 551 38,000  Level FlightAware ADS-B
Wed 03:49:46 AM 36.3377 -81.0395 228° Southwest 485 558 38,000  Level FlightAware ADS-B
Wed 03:50:17 AM 36.2916 -81.1000 227° Southwest 483 556 38,000  Level FlightAware ADS-B
Wed 03:53:01 AM 36.0385 -81.4311 227° Southwest 483 556 38,000  Level FlightAware ADS-B
Wed 03:53:43 AM 35.9738 -81.5150 226° Southwest 484 557 38,000  Level FlightAware ADS-B
Wed 03:54:14 AM 35.9268 -81.5755 226° Southwest 485 558 38,000  Level FlightAware ADS-B
Wed 03:54:44 AM 35.8803 -81.6353 226° Southwest 477 549 38,000  Level FlightAware ADS-B
Wed 03:55:14 AM 35.8347 -81.6943 226° Southwest 468 539 38,000  Level FlightAware ADS-B
Wed 03:55:45 AM 35.7892 -81.7533 226° Southwest 463 533 38,000  Level FlightAware ADS-B
Wed 03:56:21 AM 35.7359 -81.8220 226° Southwest 460 529 38,000  Level FlightAware ADS-B
Wed 03:56:52 AM 35.6915 -81.8791 226° Southwest 463 533 38,000  Level FlightAware ADS-B
Wed 03:57:22 AM 35.6463 -81.9372 226° Southwest 468 539 38,000  Level FlightAware ADS-B
Wed 03:57:52 AM 35.6009 -81.9952 226° Southwest 471 542 38,000  Level FlightAware ADS-B
Wed 03:58:22 AM 35.5553 -82.0536 226° Southwest 472 543 38,000  Level FlightAware ADS-B
Wed 03:58:53 AM 35.5092 -82.1124 226° Southwest 474 545 38,000 -295 Level FlightAware ADS-B
Wed 03:59:23 AM 35.4626 -82.1718 226° Southwest 475 547 37,700 -984 Descending FlightAware ADS-B
Wed 03:59:54 AM 35.4155 -82.2316 226° Southwest 480 552 37,000 -1,161 Descending FlightAware ADS-B
Wed 04:00:25 AM 35.3681 -82.2916 226° Southwest 480 552 36,500 -1,082 Descending FlightAware ADS-B
Wed 04:00:55 AM 35.3214 -82.3509 226° Southwest 481 554 35,900 -1,100 Descending FlightAware ADS-B
Wed 04:01:25 AM 35.2749 -82.4099 226° Southwest 482 555 35,400 -1,082 Descending FlightAware ADS-B
Wed 04:01:56 AM 35.2267 -82.4708 226° Southwest 482 555 34,800 -1,082 Descending FlightAware ADS-B
Wed 04:02:26 AM 35.1793 -82.5310 226° Southwest 482 555 34,300 -787 Descending FlightAware ADS-B
Wed 04:02:57 AM 35.1324 -82.5902 226° Southwest 481 554 34,000 -295 Descending FlightAware ADS-B
Wed 04:03:27 AM 35.0858 -82.6489 226° Southwest 482 555 34,000  Level FlightAware ADS-B
Wed 04:03:57 AM 35.0383 -82.7085 226° Southwest 484 557 34,000  Level FlightAware ADS-B
Wed 04:04:27 AM 34.9906 -82.7682 226° Southwest 485 558 34,000  Level FlightAware ADS-B
Wed 04:04:58 AM 34.9429 -82.8278 226° Southwest 483 556 34,000  Level FlightAware ADS-B
Wed 04:05:29 AM 34.8944 -82.8885 226° Southwest 484 557 34,000  Level FlightAware ADS-B
Wed 04:06:01 AM 34.8443 -82.9511 226° Southwest 484 557 34,000  Level FlightAware ADS-B
Wed 04:06:31 AM 34.7970 -83.0103 226° Southwest 484 557 34,000  Level FlightAware ADS-B
Wed 04:07:01 AM 34.7492 -83.0697 226° Southwest 484 557 34,000  Level FlightAware ADS-B
Wed 04:07:32 AM 34.7018 -83.1287 226° Southwest 484 557 34,000  Level FlightAware ADS-B
Wed 04:08:02 AM 34.6542 -83.1883 226° Southwest 485 558 34,000 -200 Level FlightAware ADS-B
Wed 04:08:32 AM 34.6069 -83.2474 226° Southwest 482 555 33,800 -1,279 Descending FlightAware ADS-B
Wed 04:09:03 AM 34.5586 -83.3076 226° Southwest 477 549 32,700 -3,000 Descending FlightAware ADS-B
Wed 04:09:34 AM 34.5115 -83.3661 226° Southwest 481 554 30,700 -4,033 Descending FlightAware ADS-B
Wed 04:10:04 AM 34.4646 -83.4243 226° Southwest 484 557 28,600 -4,300 Descending FlightAware ADS-B
Wed 04:10:34 AM 34.4164 -83.4839 226° Southwest 482 555 26,400 -4,033 Descending FlightAware ADS-B
Wed 04:11:05 AM 34.3694 -83.5414 225° Southwest 466 536 24,500 -3,677 Descending FlightAware ADS-B
Wed 04:11:36 AM 34.3225 -83.5991 225° Southwest 452 520 22,600 -3,810 Descending FlightAware ADS-B
Wed 04:12:08 AM 34.2761 -83.6560 225° Southwest 449 517 20,500 -3,417 Descending FlightAware ADS-B
Wed 04:12:48 AM 34.2260 -83.7180 226° Southwest 429 494 18,500 -3,225 Descending FlightAware ADS-B
Wed 04:13:28 AM 34.1660 -83.7910 225° Southwest 413 475 16,200 -2,775 Descending FlightAware ADS-B
Wed 04:14:08 AM 34.1120 -83.8560 225° Southwest 408 470 14,800 -2,259 Descending FlightAware ADS-B
Wed 04:14:53 AM 34.0680 -83.9370 237° Southwest 396 456 13,000 -2,541 Descending FlightAware ADS-B
Wed 04:15:33 AM 34.0330 -84.0140 241° Southwest 385 443 11,200 -1,412 Descending FlightAware ADS-B
Wed 04:16:18 AM 33.9970 -84.0940 242° Southwest 330 380 11,000 -141 Descending FlightAware ADS-B
Wed 04:16:58 AM 33.9690 -84.1560 241° Southwest 292 336 11,000  Level FlightAware ADS-B
Wed 04:17:38 AM 33.9440 -84.2110 241° Southwest 288 331 11,000  Level FlightAware ADS-B
Wed 04:18:23 AM 33.9160 -84.2730 241° Southwest 284 327 11,000 -353 Level FlightAware ADS-B
Wed 04:19:03 AM 33.8900 -84.3290 241° Southwest 281 323 10,500 -1,457 Descending FlightAware ADS-B
Wed 04:19:33 AM 33.8720 -84.3690 242° Southwest 279 321 9,300 -2,618 Descending FlightAware ADS-B
Wed 04:19:58 AM 33.8550 -84.4060 241° Southwest 278 320 8,100 -2,700 Descending FlightAware ADS-B
Wed 04:20:13 AM 33.8470 -84.4240 242° Southwest 277 319 7,500 -2,400 Descending FlightAware ADS-B
Wed 04:20:43 AM 33.8280 -84.4640 240° Southwest 271 312 6,300 -2,100 Descending FlightAware ADS-B
Wed 04:21:13 AM 33.8080 -84.5010 237° Southwest 256 295 5,400 -1,418 Descending FlightAware ADS-B
Wed 04:21:38 AM 33.7850 -84.5220 217° Southwest 232 267 5,000 -982 Descending FlightAware ADS-B
Wed 04:22:08 AM 33.7580 -84.5380 206° Southwest 212 244 4,500 -982 Descending FlightAware ADS-B
Wed 04:22:33 AM 33.7360 -84.5500 204° Southwest 203 234 4,100 -873 Descending FlightAware ADS-B
Wed 04:23:03 AM 33.7120 -84.5610 201° Southwest 186 214 3,700 -900 Descending FlightAware ADS-B
Wed 04:23:33 AM 33.6870 -84.5710 198° South 180 207 3,200 -900 Descending FlightAware ADS-B
Wed 04:23:43 AM 33.6780 -84.5730 190° South 178 205 3,100 -400 Descending FlightAware ADS-B
Wed 04:23:48 AM 33.6770 -84.5730 180° South 178 205 3,100 -400 Level FlightAware ADS-B
Wed 04:24:13 AM 33.6550 -84.5630 159° South 171 197 2,900 -450 Descending FlightAware ADS-B
Wed 04:24:28 AM 33.6490 -84.5520 123° Southeast 172 198 2,800 -600 Descending FlightAware ADS-B
Wed 04:24:43 AM 33.6490 -84.5370 90° East 181 208 2,600 -900 Descending FlightAware ADS-B
Wed 04:25:08 AM 33.6490 -84.5130 90° East 165 190 2,200 -831 Descending FlightAware ADS-B
Wed 04:25:48 AM 33.6500 -84.4810 88° East 131 151 1,700 -686 Descending FlightAware ADS-B
Wed 04:26:18 AM 33.6500 -84.4600 90° East 124 143 1,400 -600 Descending FlightAware ADS-B
Wed 04:26:48 AM 33.6500 -84.4410 90° East 123 142 1,100 -600 Descending FlightAware ADS-B

Login

Don't have an account? Register now (free) for customized features, flight alerts, and more!